createdAt,value
2019-01-26T00:00:27.844Z,15.3
2019-01-26T00:01:30.285Z,15.4
2019-01-26T00:02:32.704Z,15.5
2019-01-26T00:03:34.867Z,15.5
2019-01-26T00:04:36.994Z,15.4
2019-01-26T00:05:39.409Z,15.6
2019-01-26T00:06:41.829Z,15.4
2019-01-26T00:07:44.253Z,15.4
2019-01-26T00:08:46.407Z,15.4
2019-01-26T00:09:48.554Z,15.5
2019-01-26T00:10:50.989Z,15.3
2019-01-26T00:11:53.420Z,15.5
2019-01-26T00:12:55.545Z,15.6
2019-01-26T00:13:57.983Z,15.7
2019-01-26T00:15:00.415Z,15.6
2019-01-26T00:16:02.672Z,15.6
2019-01-26T00:17:05.102Z,15.7
2019-01-26T00:18:07.531Z,15.5
2019-01-26T00:19:09.962Z,15.6
2019-01-26T00:20:12.386Z,15.6
2019-01-26T00:21:14.802Z,15.7
2019-01-26T00:22:16.971Z,15.7
2019-01-26T00:23:19.122Z,15.7
2019-01-26T00:24:21.273Z,15.6
2019-01-26T00:25:23.698Z,15.7
2019-01-26T00:26:25.827Z,15.7
2019-01-26T00:27:27.717Z,15.6
2019-01-26T00:28:29.294Z,15.7
2019-01-26T00:29:31.422Z,15.6
2019-01-26T00:30:33.572Z,15.7
2019-01-26T00:31:36.006Z,15.6
2019-01-26T00:32:38.443Z,15.6
2019-01-26T00:34:45.857Z,15.6
2019-01-26T00:35:48.279Z,15.7
2019-01-26T00:36:50.713Z,15.6
2019-01-26T00:37:53.132Z,15.7
2019-01-26T00:38:55.562Z,15.6
2019-01-26T00:39:57.715Z,15.7
2019-01-26T00:41:00.146Z,15.6
2019-01-26T00:42:02.567Z,15.7
2019-01-26T00:43:05.008Z,15.7
2019-01-26T00:44:07.446Z,15.7
2019-01-26T00:45:09.312Z,15.6
2019-01-26T00:46:11.473Z,15.7
2019-01-26T00:47:13.639Z,15.6
2019-01-26T00:48:16.084Z,15.6
2019-01-26T00:49:18.512Z,15.6
2019-01-26T00:50:20.384Z,15.6
2019-01-26T00:51:22.530Z,15.6
2019-01-26T00:52:24.674Z,15.7
2019-01-26T00:53:26.818Z,15.7
2019-01-26T00:54:29.242Z,15.5
2019-01-26T00:55:31.684Z,15.6
2019-01-26T00:56:34.109Z,15.7
2019-01-26T00:57:36.531Z,15.6
2019-01-26T00:58:38.962Z,15.7
2019-01-26T00:59:41.398Z,15.7
2019-01-26T01:00:43.523Z,15.7
2019-01-26T01:01:45.690Z,15.6
2019-01-26T01:02:48.111Z,15.6
2019-01-26T01:03:50.542Z,15.7
2019-01-26T01:04:52.995Z,15.6
2019-01-26T01:05:55.140Z,15.7
2019-01-26T01:06:57.573Z,15.7
2019-01-26T01:08:00.000Z,15.7
2019-01-26T01:09:02.424Z,15.7
2019-01-26T01:10:04.848Z,15.7
2019-01-26T01:11:07.274Z,15.7
2019-01-26T01:12:08.873Z,15.7
2019-01-26T01:13:11.021Z,15.7
2019-01-26T01:14:13.172Z,15.7
2019-01-26T01:15:15.312Z,15.6
2019-01-26T01:16:17.466Z,15.6
2019-01-26T01:17:19.643Z,15.7
2019-01-26T01:18:22.078Z,15.7
2019-01-26T01:19:24.503Z,15.6
2019-01-26T01:20:26.922Z,15.7
2019-01-26T01:21:29.062Z,15.7
2019-01-26T01:22:31.218Z,15.8
2019-01-26T01:23:33.489Z,15.7
2019-01-26T01:24:35.422Z,15.7
2019-01-26T01:25:37.570Z,15.7
2019-01-26T01:26:39.990Z,15.8
2019-01-26T01:27:41.844Z,15.8
2019-01-26T01:28:44.272Z,15.8
2019-01-26T01:29:46.694Z,15.8
2019-01-26T01:30:49.121Z,15.8
2019-01-26T01:31:51.288Z,15.8
2019-01-26T01:32:53.712Z,15.7
2019-01-26T01:33:55.854Z,15.7
2019-01-26T01:34:58.280Z,15.8
2019-01-26T01:36:00.713Z,15.9
2019-01-26T01:37:02.874Z,15.8
2019-01-26T01:38:05.032Z,15.8
2019-01-26T01:39:07.450Z,15.8
2019-01-26T01:40:09.601Z,15.8
2019-01-26T01:41:11.770Z,15.9
2019-01-26T01:42:13.930Z,15.8
2019-01-26T01:43:16.348Z,15.8
2019-01-26T01:44:18.783Z,15.9
2019-01-26T01:45:21.207Z,15.8
2019-01-26T01:46:23.362Z,15.9
2019-01-26T01:47:25.783Z,15.9
2019-01-26T01:48:28.214Z,15.8
2019-01-26T01:49:30.642Z,16
2019-01-26T01:50:33.084Z,16
2019-01-26T01:51:35.519Z,16
2019-01-26T01:52:38.102Z,16
2019-01-26T01:53:40.822Z,15.9
2019-01-26T01:54:43.253Z,16
2019-01-26T01:55:45.424Z,16.1
2019-01-26T01:56:47.580Z,15.9
2019-01-26T01:57:49.744Z,16.1
2019-01-26T01:58:51.894Z,16.1
2019-01-26T01:59:54.049Z,16
2019-01-26T02:00:56.192Z,16
2019-01-26T02:01:58.621Z,16
2019-01-26T02:03:00.763Z,16.2
2019-01-26T02:04:03.195Z,16.1
2019-01-26T02:05:05.320Z,15.9
2019-01-26T02:06:07.467Z,16
2019-01-26T02:07:09.067Z,16.1
2019-01-26T02:08:11.492Z,16.1
2019-01-26T02:09:13.933Z,16
2019-01-26T02:10:16.364Z,16.1
2019-01-26T02:11:18.805Z,16.1
2019-01-26T02:12:20.956Z,16.1
2019-01-26T02:13:23.381Z,15.9
2019-01-26T02:14:25.558Z,16.1
2019-01-26T02:15:27.958Z,16.1
2019-01-26T02:16:29.832Z,16.2
2019-01-26T02:17:31.972Z,16.1
2019-01-26T02:18:34.402Z,16.1
2019-01-26T02:19:36.830Z,16.2
2019-01-26T02:20:38.712Z,16.2
2019-01-26T02:21:40.879Z,16.1
2019-01-26T02:22:43.313Z,16.2
2019-01-26T02:23:45.465Z,16.1
2019-01-26T02:24:47.322Z,16.2
2019-01-26T02:25:49.807Z,16.1
2019-01-26T02:26:52.381Z,16.1
2019-01-26T02:27:54.244Z,16.2
2019-01-26T02:28:56.662Z,16.1
2019-01-26T02:29:59.085Z,16.2
2019-01-26T02:31:01.603Z,16.1
2019-01-26T02:32:03.771Z,16.2
2019-01-26T02:33:06.198Z,16.1
2019-01-26T02:34:08.339Z,16.2
2019-01-26T02:35:10.762Z,16.1
2019-01-26T02:36:13.224Z,16.1
2019-01-26T02:37:15.389Z,16.1
2019-01-26T02:38:17.831Z,16.2
2019-01-26T02:39:20.257Z,16.1
2019-01-26T02:40:22.703Z,16.2
2019-01-26T02:41:25.139Z,16.1
2019-01-26T02:42:27.567Z,16.1
2019-01-26T02:43:29.982Z,16.1
2019-01-26T02:44:32.431Z,16.2
2019-01-26T02:45:34.853Z,16.2
2019-01-26T02:46:37.285Z,16.2
2019-01-26T02:47:39.714Z,16.2
2019-01-26T02:48:41.880Z,16.1
2019-01-26T02:49:44.321Z,16.1
2019-01-26T02:50:46.737Z,16.1
2019-01-26T02:51:48.892Z,16.1
2019-01-26T02:52:51.031Z,16.2
2019-01-26T02:53:52.912Z,16.1
2019-01-26T02:54:55.339Z,16.2
2019-01-26T02:55:57.756Z,16.2
2019-01-26T02:57:00.182Z,16.2
2019-01-26T02:58:02.335Z,16.2
2019-01-26T02:59:04.757Z,16.2
2019-01-26T03:00:07.181Z,16.2
2019-01-26T03:01:09.327Z,16.1
2019-01-26T03:02:11.753Z,16.2
2019-01-26T03:03:14.181Z,16.2
2019-01-26T03:04:16.603Z,16.2
2019-01-26T03:05:19.030Z,16.2
2019-01-26T03:06:21.483Z,16.2
2019-01-26T03:07:23.613Z,16.2
2019-01-26T03:08:26.055Z,16.2
2019-01-26T03:09:28.493Z,16.3
2019-01-26T03:10:30.629Z,16.2
2019-01-26T03:11:33.058Z,16.2
2019-01-26T03:12:35.207Z,16.2
2019-01-26T03:13:37.371Z,16.2
2019-01-26T03:14:39.778Z,16.1
2019-01-26T03:15:42.178Z,16.2
2019-01-26T03:16:44.596Z,16.1
2019-01-26T03:17:46.477Z,16.1
2019-01-26T03:18:48.619Z,16.1
2019-01-26T03:19:51.038Z,16.2
2019-01-26T03:20:53.460Z,16
2019-01-26T03:21:55.884Z,16.1
2019-01-26T03:22:58.052Z,16.1
2019-01-26T03:24:00.494Z,16
2019-01-26T03:25:02.654Z,16.1
2019-01-26T03:26:05.078Z,16.1
2019-01-26T03:27:07.227Z,16.1
2019-01-26T03:28:09.382Z,16
2019-01-26T03:29:11.534Z,16
2019-01-26T03:30:13.702Z,16.1
2019-01-26T03:31:16.160Z,16
2019-01-26T03:32:18.663Z,16.1
2019-01-26T03:33:20.833Z,16
2019-01-26T03:34:22.977Z,16.2
2019-01-26T03:35:25.123Z,16.1
2019-01-26T03:36:27.561Z,16
2019-01-26T03:37:29.984Z,16.1
2019-01-26T03:38:32.144Z,16
2019-01-26T03:39:34.576Z,16.2
2019-01-26T03:40:36.730Z,16.1
2019-01-26T03:41:38.636Z,16.2
2019-01-26T03:42:40.797Z,16.1
2019-01-26T03:43:43.220Z,16.1
2019-01-26T03:44:45.645Z,15.9
2019-01-26T03:45:48.071Z,15.9
2019-01-26T03:46:50.228Z,16.1
2019-01-26T03:47:52.643Z,16
2019-01-26T03:48:54.805Z,16
2019-01-26T03:49:56.974Z,16
2019-01-26T03:50:58.854Z,15.9
2019-01-26T03:52:01.276Z,16
2019-01-26T03:53:03.694Z,16.1
2019-01-26T03:54:06.127Z,15.9
2019-01-26T03:55:08.543Z,15.8
2019-01-26T03:56:10.976Z,16
2019-01-26T03:57:13.414Z,16
2019-01-26T03:58:15.846Z,15.8
2019-01-26T03:59:18.285Z,16
2019-01-26T04:00:20.704Z,15.9
2019-01-26T04:01:23.132Z,15.9
2019-01-26T04:02:25.549Z,15.9
2019-01-26T04:03:27.675Z,16
2019-01-26T04:04:29.831Z,16
2019-01-26T04:05:32.012Z,16
2019-01-26T04:06:34.443Z,15.9
2019-01-26T04:07:36.587Z,15.9
2019-01-26T04:08:38.733Z,15.8
2019-01-26T04:09:40.894Z,15.9
2019-01-26T04:10:43.322Z,15.9
2019-01-26T04:11:45.745Z,15.9
2019-01-26T04:12:48.173Z,15.8
2019-01-26T04:13:50.604Z,15.9
2019-01-26T04:14:52.492Z,15.9
2019-01-26T04:15:54.641Z,15.9
2019-01-26T04:16:57.081Z,15.9
2019-01-26T04:17:59.222Z,15.8
2019-01-26T04:19:01.374Z,15.8
2019-01-26T04:20:03.541Z,15.7
2019-01-26T04:21:05.960Z,15.8
2019-01-26T04:22:08.113Z,15.8
2019-01-26T04:23:10.547Z,15.8
2019-01-26T04:24:12.967Z,15.8
2019-01-26T04:25:15.405Z,15.8
2019-01-26T04:26:17.834Z,15.8
2019-01-26T04:27:19.999Z,15.8
2019-01-26T04:28:22.430Z,15.8
2019-01-26T04:29:24.575Z,15.7
2019-01-26T04:30:27.066Z,15.8
2019-01-26T04:31:29.237Z,15.8
2019-01-26T04:32:31.662Z,15.8
2019-01-26T04:33:33.804Z,15.7
2019-01-26T04:34:36.227Z,15.7
2019-01-26T04:35:38.650Z,15.7
2019-01-26T04:36:41.087Z,15.7
2019-01-26T04:37:43.509Z,15.7
2019-01-26T04:38:45.662Z,15.7
2019-01-26T04:39:48.086Z,15.7
2019-01-26T04:40:50.515Z,15.7
2019-01-26T04:41:52.933Z,15.7
2019-01-26T04:42:54.836Z,15.7
2019-01-26T04:43:57.250Z,15.7
2019-01-26T04:44:58.873Z,15.7
2019-01-26T04:46:01.019Z,15.8
2019-01-26T04:47:03.449Z,15.7
2019-01-26T04:48:05.860Z,15.7
2019-01-26T04:49:08.292Z,15.7
2019-01-26T04:50:10.712Z,15.7
2019-01-26T04:51:12.849Z,15.7
2019-01-26T04:52:14.735Z,15.7
2019-01-26T04:53:17.155Z,15.7
2019-01-26T04:54:19.032Z,15.7
2019-01-26T04:55:21.194Z,15.7
2019-01-26T04:56:23.624Z,15.6
2019-01-26T04:57:25.230Z,15.7
2019-01-26T04:58:27.668Z,15.7
2019-01-26T04:59:29.814Z,15.7
2019-01-26T05:00:32.236Z,15.7
2019-01-26T05:01:34.656Z,15.7
2019-01-26T05:02:37.088Z,15.7
2019-01-26T05:03:39.238Z,15.6
2019-01-26T05:04:41.395Z,15.6
2019-01-26T05:05:43.534Z,15.7
2019-01-26T05:06:45.712Z,15.6
2019-01-26T05:07:48.150Z,15.6
2019-01-26T05:08:50.599Z,15.6
2019-01-26T05:09:52.736Z,15.7
2019-01-26T05:10:55.175Z,15.7
2019-01-26T05:11:57.605Z,15.7
2019-01-26T05:12:59.745Z,15.7
2019-01-26T05:14:02.177Z,15.6
2019-01-26T05:15:04.036Z,15.8
2019-01-26T05:16:06.468Z,15.8
2019-01-26T05:17:08.613Z,15.6
2019-01-26T05:18:11.036Z,15.7
2019-01-26T05:19:13.195Z,15.6
2019-01-26T05:20:15.638Z,15.7
2019-01-26T05:21:18.054Z,15.7
2019-01-26T05:22:19.636Z,15.7
2019-01-26T05:23:22.064Z,15.7
2019-01-26T05:24:24.487Z,15.7
2019-01-26T05:25:26.933Z,15.7
2019-01-26T05:26:29.359Z,15.6
2019-01-26T05:27:31.785Z,15.7
2019-01-26T05:28:34.205Z,15.6
2019-01-26T05:29:36.341Z,15.6
2019-01-26T05:30:38.765Z,15.8
2019-01-26T05:31:40.919Z,15.6
2019-01-26T05:32:43.345Z,15.7
2019-01-26T05:33:45.776Z,15.7
2019-01-26T05:34:48.208Z,15.6
2019-01-26T05:35:50.107Z,15.6
2019-01-26T05:36:52.529Z,15.7
2019-01-26T05:37:54.407Z,15.7
2019-01-26T05:38:56.548Z,15.7
2019-01-26T05:39:58.971Z,15.6
2019-01-26T05:41:01.390Z,15.6
2019-01-26T05:42:03.810Z,15.5
2019-01-26T05:43:06.241Z,15.7
2019-01-26T05:44:08.606Z,15.6
2019-01-26T05:45:10.483Z,15.6
2019-01-26T05:46:12.627Z,15.7
2019-01-26T05:47:14.789Z,15.6
2019-01-26T05:48:17.222Z,15.7
2019-01-26T05:49:19.395Z,15.6
2019-01-26T05:50:21.831Z,15.6
2019-01-26T05:51:23.714Z,15.6
2019-01-26T05:52:25.876Z,15.6
2019-01-26T05:53:28.045Z,15.4
2019-01-26T05:54:30.195Z,15.7
2019-01-26T05:55:32.615Z,15.6
2019-01-26T05:56:34.777Z,15.6
2019-01-26T05:57:37.205Z,15.5
2019-01-26T05:58:39.625Z,15.5
2019-01-26T05:59:42.045Z,15.7
2019-01-26T06:00:43.926Z,15.7
2019-01-26T06:01:46.347Z,15.6
2019-01-26T06:02:48.506Z,15.7
2019-01-26T06:03:50.935Z,15.5
2019-01-26T06:04:53.088Z,15.5
2019-01-26T06:05:55.227Z,15.5
2019-01-26T06:06:57.651Z,15.6
2019-01-26T06:07:59.815Z,15.6
2019-01-26T06:09:02.238Z,15.7
2019-01-26T06:10:04.412Z,15.6
2019-01-26T06:11:06.829Z,15.6
2019-01-26T06:12:08.966Z,15.7
2019-01-26T06:13:11.099Z,15.5
2019-01-26T06:14:13.528Z,15.5
2019-01-26T06:15:15.960Z,15.7
2019-01-26T06:16:18.388Z,15.6
2019-01-26T06:17:20.533Z,15.7
2019-01-26T06:18:22.705Z,15.5
2019-01-26T06:19:25.133Z,15.6
2019-01-26T06:20:27.554Z,15.6
2019-01-26T06:21:29.967Z,15.6
2019-01-26T06:22:32.414Z,15.7
2019-01-26T06:23:34.843Z,15.5
2019-01-26T06:24:37.280Z,15.7
2019-01-26T06:25:39.163Z,15.5
2019-01-26T06:26:41.302Z,15.5
2019-01-26T06:27:43.721Z,15.5
2019-01-26T06:28:45.846Z,15.7
2019-01-26T06:29:48.001Z,15.6
2019-01-26T06:30:50.161Z,15.6
2019-01-26T06:31:52.027Z,15.6
2019-01-26T06:32:54.450Z,15.5
2019-01-26T06:33:56.616Z,15.6
2019-01-26T06:34:59.049Z,15.6
2019-01-26T06:36:01.484Z,15.6
2019-01-26T06:37:03.916Z,15.6
2019-01-26T06:38:06.075Z,15.6
2019-01-26T06:39:08.491Z,15.5
2019-01-26T06:40:10.915Z,15.6
2019-01-26T06:41:13.413Z,15.6
2019-01-26T06:42:15.935Z,15.6
2019-01-26T06:43:18.380Z,15.6
2019-01-26T06:44:20.511Z,15.6
2019-01-26T06:45:22.671Z,15.6
2019-01-26T06:46:24.805Z,15.6
2019-01-26T06:47:27.232Z,15.5
2019-01-26T06:48:29.663Z,15.5
2019-01-26T06:49:32.088Z,15.6
2019-01-26T06:50:33.986Z,15.5
2019-01-26T06:51:36.124Z,15.5
2019-01-26T06:52:38.555Z,15.5
2019-01-26T06:53:40.979Z,15.5
2019-01-26T06:54:43.403Z,15.7
2019-01-26T06:55:45.839Z,15.6
2019-01-26T06:56:48.265Z,15.7
2019-01-26T06:57:50.426Z,15.6
2019-01-26T06:58:52.577Z,15.7
2019-01-26T06:59:55.011Z,15.6
2019-01-26T07:00:57.436Z,15.5
2019-01-26T07:01:59.301Z,15.6
2019-01-26T07:03:01.725Z,15.5
2019-01-26T07:04:04.155Z,15.6
2019-01-26T07:05:06.580Z,15.5
2019-01-26T07:06:09.017Z,15.4
2019-01-26T07:07:10.978Z,15.6
2019-01-26T07:08:13.202Z,15.4
2019-01-26T07:09:15.343Z,15.5
2019-01-26T07:10:17.519Z,15.6
2019-01-26T07:11:19.947Z,15.6
2019-01-26T07:12:22.688Z,15.6
2019-01-26T07:13:25.936Z,15.4
2019-01-26T07:14:28.380Z,15.4
2019-01-26T07:15:30.241Z,15.6
2019-01-26T07:16:32.404Z,15.5
2019-01-26T07:17:34.865Z,15.4
2019-01-26T07:18:37.040Z,15.6
2019-01-26T07:19:39.225Z,15.6
2019-01-26T07:20:41.380Z,15.5
2019-01-26T07:21:43.837Z,15.4
2019-01-26T07:22:46.000Z,15.3
2019-01-26T07:23:48.443Z,15.3
2019-01-26T07:24:50.895Z,15.6
2019-01-26T07:25:53.049Z,15.5
2019-01-26T07:26:54.965Z,15.5
2019-01-26T07:27:57.416Z,15.5
2019-01-26T07:28:59.865Z,15.6
2019-01-26T07:30:02.303Z,15.5
2019-01-26T07:31:04.731Z,15.6
2019-01-26T07:32:08.302Z,15.5
2019-01-26T07:33:10.756Z,15.5
2019-01-26T07:34:13.195Z,15.6
2019-01-26T07:35:15.637Z,15.3
2019-01-26T07:36:18.104Z,15.6
2019-01-26T07:37:20.265Z,15.5
2019-01-26T07:38:22.464Z,15.7
2019-01-26T07:39:24.999Z,15.5
2019-01-26T07:40:27.429Z,15.6
2019-01-26T07:41:29.864Z,15.5
2019-01-26T07:42:32.025Z,15.4
2019-01-26T07:43:34.451Z,15.5
2019-01-26T07:44:36.866Z,15.6
2019-01-26T07:45:39.293Z,15.4
2019-01-26T07:46:41.719Z,15.6
2019-01-26T07:47:44.171Z,15.5
2019-01-26T07:48:46.408Z,15.4
2019-01-26T07:49:48.751Z,15.6
2019-01-26T07:50:51.345Z,15.5
2019-01-26T07:51:53.616Z,15.3
2019-01-26T07:52:56.223Z,15.5
2019-01-26T07:53:58.492Z,15.5
2019-01-26T07:55:00.636Z,15.4
2019-01-26T07:56:02.513Z,15.5
2019-01-26T07:57:04.648Z,15.4
2019-01-26T07:58:07.075Z,15.5
2019-01-26T07:59:09.504Z,15.5
2019-01-26T08:00:11.939Z,15.5
2019-01-26T08:01:14.359Z,15.5
2019-01-26T08:02:16.872Z,15.4
2019-01-26T08:03:18.752Z,15.5
2019-01-26T08:04:20.634Z,15.5
2019-01-26T08:05:23.070Z,15.6
2019-01-26T08:06:25.539Z,15.4
2019-01-26T08:07:27.470Z,15.5
2019-01-26T08:08:29.668Z,15.5
2019-01-26T08:09:31.841Z,15.5
2019-01-26T08:10:33.777Z,15.3
2019-01-26T08:11:36.240Z,15.5
2019-01-26T08:12:38.439Z,15.5
2019-01-26T08:13:40.634Z,15.5
2019-01-26T08:14:42.809Z,15.5
2019-01-26T08:15:45.243Z,15.5
2019-01-26T08:16:47.413Z,15.3
2019-01-26T08:17:49.844Z,15.4
2019-01-26T08:18:52.029Z,15.5
2019-01-26T08:19:54.461Z,15.4
2019-01-26T08:20:56.333Z,15.4
2019-01-26T08:21:58.778Z,15.5
2019-01-26T08:23:01.223Z,15.5
2019-01-26T08:24:03.365Z,15.5
2019-01-26T08:25:05.798Z,15.4
2019-01-26T08:26:07.414Z,15.4
2019-01-26T08:27:09.825Z,15.6
2019-01-26T08:28:12.249Z,15.5
2019-01-26T08:29:14.404Z,15.5
2019-01-26T08:30:17.030Z,15.6
2019-01-26T08:31:19.424Z,15.3
2019-01-26T08:32:21.536Z,15.3
2019-01-26T08:33:24.007Z,15.4
2019-01-26T08:34:26.184Z,15.5
2019-01-26T08:35:28.395Z,15.5
2019-01-26T08:36:30.824Z,15.5
2019-01-26T08:37:32.715Z,15.4
2019-01-26T08:38:34.894Z,15.5
2019-01-26T08:39:36.795Z,15.5
2019-01-26T08:40:39.228Z,15.5
2019-01-26T08:41:41.662Z,15.4
2019-01-26T08:42:43.827Z,15.3
2019-01-26T08:43:46.267Z,15.6
2019-01-26T08:44:48.702Z,15.5
2019-01-26T08:45:50.854Z,15.6
2019-01-26T08:46:53.035Z,15.4
2019-01-26T08:47:55.455Z,15.6
2019-01-26T08:48:57.624Z,15.4
2019-01-26T08:49:59.604Z,15.4
2019-01-26T08:51:01.984Z,15.5
2019-01-26T08:52:04.153Z,15.4
2019-01-26T08:53:06.301Z,15.5
2019-01-26T08:54:08.730Z,15.5
2019-01-26T08:56:16.129Z,15.5
2019-01-26T08:57:18.562Z,15.5
2019-01-26T08:58:20.724Z,15.5
2019-01-26T08:59:23.149Z,15.4
2019-01-26T09:00:25.593Z,15.4
2019-01-26T09:01:27.764Z,15.4
2019-01-26T09:02:30.194Z,15.4
2019-01-26T09:03:32.622Z,15.3
2019-01-26T09:04:34.793Z,15.4
2019-01-26T09:05:36.963Z,15.4
2019-01-26T09:06:39.392Z,15.4
2019-01-26T09:07:41.806Z,15.4
2019-01-26T09:08:44.326Z,15.4
2019-01-26T09:09:46.470Z,15.3
2019-01-26T09:10:48.927Z,15.4
2019-01-26T09:11:51.062Z,15.6
2019-01-26T09:12:53.496Z,15.4
2019-01-26T09:13:55.643Z,15.3
2019-01-26T09:14:57.256Z,15.3
2019-01-26T09:15:59.409Z,15.5
2019-01-26T09:17:01.606Z,15.4
2019-01-26T09:18:03.930Z,15.2
2019-01-26T09:19:06.173Z,15.5
2019-01-26T09:20:08.448Z,15.3
2019-01-26T09:21:14.929Z,15.3
2019-01-26T09:22:17.370Z,15.3
2019-01-26T09:23:19.529Z,15.5
2019-01-26T09:24:21.970Z,15.4
2019-01-26T09:25:23.871Z,15.5
2019-01-26T09:26:26.013Z,15.4
2019-01-26T09:27:28.442Z,15.4
2019-01-26T09:28:30.600Z,15.4
2019-01-26T09:29:32.748Z,15.4
2019-01-26T09:30:35.174Z,15.5
2019-01-26T09:31:37.081Z,15.3
2019-01-26T09:32:39.524Z,15.2
2019-01-26T09:33:41.423Z,15.3
2019-01-26T09:34:43.622Z,15.2
2019-01-26T09:35:46.042Z,15.2
2019-01-26T09:36:47.974Z,15.4
2019-01-26T09:37:50.411Z,15.3
2019-01-26T09:38:52.545Z,15.4
2019-01-26T09:39:54.448Z,15.4
2019-01-26T09:40:56.896Z,15.3
2019-01-26T09:41:59.332Z,15.4
2019-01-26T09:43:01.252Z,15.3
2019-01-26T09:44:03.707Z,15.4
2019-01-26T09:45:05.893Z,15.3
2019-01-26T09:46:07.802Z,15.3
2019-01-26T09:47:09.419Z,15.3
2019-01-26T09:48:11.872Z,15.4
2019-01-26T09:49:13.795Z,15.4
2019-01-26T09:50:16.287Z,15.4
2019-01-26T09:51:18.546Z,15.4
2019-01-26T09:52:20.770Z,15.4
2019-01-26T09:53:22.942Z,15.4
2019-01-26T09:54:25.374Z,15.5
2019-01-26T09:55:27.804Z,15.3
2019-01-26T09:56:29.936Z,15.4
2019-01-26T09:57:32.360Z,15.3
2019-01-26T09:58:34.803Z,15.5
2019-01-26T09:59:37.227Z,15.4
2019-01-26T10:00:39.384Z,15.5
2019-01-26T10:01:41.813Z,15.4
2019-01-26T10:02:43.978Z,15.3
2019-01-26T10:03:46.628Z,15.4
2019-01-26T10:04:50.199Z,15.5
2019-01-26T10:05:52.627Z,15.5
2019-01-26T10:06:55.058Z,15.3
2019-01-26T10:07:57.477Z,15.5
2019-01-26T10:08:59.922Z,15.5
2019-01-26T10:10:03.065Z,15.5
2019-01-26T10:11:05.226Z,15.5
2019-01-26T10:12:07.114Z,15.5
2019-01-26T10:13:09.292Z,15.3
2019-01-26T10:14:11.193Z,15.5
2019-01-26T10:15:13.091Z,15.4
2019-01-26T10:16:16.894Z,15.3
2019-01-26T10:17:19.046Z,15.4
2019-01-26T10:18:21.488Z,15.4
2019-01-26T10:19:23.937Z,15.3
2019-01-26T10:20:26.089Z,15.4
2019-01-26T10:21:27.988Z,15.4
2019-01-26T10:22:29.924Z,15.3
2019-01-26T10:23:31.817Z,15.4
2019-01-26T10:24:33.976Z,15.3
2019-01-26T10:25:35.872Z,15.3
2019-01-26T10:26:38.334Z,15.4
2019-01-26T10:27:40.777Z,15.3
2019-01-26T10:28:42.648Z,15.4
2019-01-26T10:29:44.815Z,15.3
2019-01-26T10:30:47.254Z,15.5
2019-01-26T10:31:49.714Z,15.3
2019-01-26T10:32:51.628Z,15.3
2019-01-26T10:33:54.116Z,15.2
2019-01-26T10:34:56.295Z,15.4
2019-01-26T10:35:58.788Z,15.4
2019-01-26T10:37:01.268Z,15.3
2019-01-26T10:38:03.484Z,15.4
2019-01-26T10:39:05.155Z,15.4
2019-01-26T10:40:07.096Z,15.3
2019-01-26T10:41:09.260Z,15.3
2019-01-26T10:42:11.691Z,15.3
2019-01-26T10:43:13.927Z,15.4
2019-01-26T10:44:16.423Z,15.4
2019-01-26T10:45:18.614Z,15.4
2019-01-26T10:46:20.565Z,15.4
2019-01-26T10:47:23.073Z,15.5
2019-01-26T10:48:25.264Z,15.3
2019-01-26T10:49:27.688Z,15.3
2019-01-26T10:50:30.111Z,15.4
2019-01-26T10:51:32.536Z,15.4
2019-01-26T10:52:34.972Z,15.3
2019-01-26T10:53:37.404Z,15.3
2019-01-26T10:54:39.835Z,15.3
2019-01-26T10:55:42.264Z,15.3
2019-01-26T10:56:44.706Z,15.4
2019-01-26T10:57:47.142Z,15.3
2019-01-26T10:58:49.586Z,15.3
2019-01-26T10:59:52.043Z,15.4
2019-01-26T11:00:54.493Z,15.3
2019-01-26T11:01:56.926Z,15.3
2019-01-26T11:02:59.372Z,15.3
2019-01-26T11:04:01.810Z,15.4
2019-01-26T11:05:04.244Z,15.3
2019-01-26T11:06:06.683Z,15.4
2019-01-26T11:07:09.144Z,15.3
2019-01-26T11:08:11.586Z,15.3
2019-01-26T11:09:13.720Z,15.3
2019-01-26T11:10:16.150Z,15.3
2019-01-26T11:11:18.584Z,15.2
2019-01-26T11:12:21.006Z,15.4
2019-01-26T11:13:23.167Z,15.2
2019-01-26T11:14:25.607Z,15.3
2019-01-26T11:15:28.024Z,15.3
2019-01-26T11:16:30.463Z,15.3
2019-01-26T11:17:32.621Z,15.4
2019-01-26T11:18:35.057Z,15.3
2019-01-26T11:19:37.496Z,15.3
2019-01-26T11:20:39.147Z,15.4
2019-01-26T11:21:41.334Z,15.4
2019-01-26T11:22:43.504Z,15.3
2019-01-26T11:23:45.691Z,15.4
2019-01-26T11:24:48.139Z,15.2
2019-01-26T11:25:50.302Z,15.4
2019-01-26T11:26:52.736Z,15.3
2019-01-26T11:27:54.892Z,15.4
2019-01-26T11:28:57.327Z,15.3
2019-01-26T11:29:59.776Z,15.4
2019-01-26T11:31:01.940Z,15.2
2019-01-26T11:32:04.377Z,15.3
2019-01-26T11:33:06.814Z,15.4
2019-01-26T11:34:08.980Z,15.3
2019-01-26T11:35:11.445Z,15.4
2019-01-26T11:36:13.886Z,15.3
2019-01-26T11:37:16.044Z,15.5
2019-01-26T11:38:18.478Z,15.4
2019-01-26T11:39:20.915Z,15.3
2019-01-26T11:40:23.527Z,15.3
2019-01-26T11:41:25.990Z,15.2
2019-01-26T11:42:28.465Z,15.3
2019-01-26T11:43:30.888Z,15.3
2019-01-26T11:44:33.310Z,15.3
2019-01-26T11:45:35.452Z,15.3
2019-01-26T11:46:37.614Z,15.4
2019-01-26T11:47:40.046Z,15.3
2019-01-26T11:48:42.481Z,15.4
2019-01-26T11:49:44.910Z,15.3
2019-01-26T11:50:47.333Z,15.4
2019-01-26T11:51:49.764Z,15.3
2019-01-26T11:52:52.186Z,15.4
2019-01-26T11:53:54.355Z,15.4
2019-01-26T11:54:56.788Z,15.4
2019-01-26T11:55:58.656Z,15.3
2019-01-26T11:57:01.089Z,15.3
2019-01-26T11:58:03.245Z,15.4
2019-01-26T11:59:05.415Z,15.3
2019-01-26T12:00:07.581Z,15.3
2019-01-26T12:01:09.745Z,15.4
2019-01-26T12:02:12.181Z,15.4
2019-01-26T12:03:14.612Z,15.3
2019-01-26T12:04:16.481Z,15.4
2019-01-26T12:05:18.645Z,15.3
2019-01-26T12:06:21.090Z,15.5
2019-01-26T12:07:24.874Z,15.4
2019-01-26T12:08:27.296Z,15.3
2019-01-26T12:09:29.505Z,15.3
2019-01-26T12:10:33.656Z,15.3
2019-01-26T12:11:38.841Z,15.3
2019-01-26T12:12:42.104Z,15.4
2019-01-26T12:13:44.668Z,15.4
2019-01-26T12:14:49.056Z,15.5
2019-01-26T12:15:59.344Z,15.3
2019-01-26T12:17:01.774Z,15.4
2019-01-26T12:18:03.929Z,15.3
2019-01-26T12:19:07.957Z,15.3
2019-01-26T12:20:11.317Z,15.2
2019-01-26T12:21:13.501Z,15.3
2019-01-26T12:22:15.633Z,15.3
2019-01-26T12:23:19.723Z,15.3
2019-01-26T12:24:22.235Z,15.3
2019-01-26T12:25:24.415Z,15.3
2019-01-26T12:26:27.148Z,15.3
2019-01-26T12:27:29.220Z,15.3
2019-01-26T12:28:31.141Z,15.4
2019-01-26T12:29:33.335Z,15.4
2019-01-26T12:30:35.667Z,15.3
2019-01-26T12:31:37.885Z,15.3
2019-01-26T12:32:40.353Z,15.3
2019-01-26T12:33:42.790Z,15.4
2019-01-26T12:34:44.984Z,15.4
2019-01-26T12:35:47.425Z,15.3
2019-01-26T12:36:49.053Z,15.3
2019-01-26T12:37:51.568Z,15.3
2019-01-26T12:38:53.741Z,15.3
2019-01-26T12:39:55.906Z,15.3
2019-01-26T12:40:58.333Z,15.3
2019-01-26T12:42:00.837Z,15.4
2019-01-26T12:43:03.329Z,15.4
2019-01-26T12:44:05.763Z,15.4
2019-01-26T12:45:08.195Z,15.4
2019-01-26T12:46:10.639Z,15.3
2019-01-26T12:48:17.508Z,15.4
2019-01-26T12:49:19.945Z,15.3
2019-01-26T12:50:22.381Z,15.3
2019-01-26T12:51:24.325Z,15.3
2019-01-26T12:52:26.188Z,15.3
2019-01-26T12:53:28.105Z,15.4
2019-01-26T12:54:30.273Z,15.4
2019-01-26T12:55:32.704Z,15.3
2019-01-26T12:56:34.915Z,15.3
2019-01-26T12:57:37.368Z,15.3
2019-01-26T12:58:39.545Z,15.4
2019-01-26T12:59:41.984Z,15.4
2019-01-26T13:00:44.419Z,15.3
2019-01-26T13:01:46.855Z,15.3
2019-01-26T13:02:50.015Z,15.3
2019-01-26T13:03:52.467Z,15.4
2019-01-26T13:04:54.637Z,15.3
2019-01-26T13:05:57.064Z,15.4
2019-01-26T13:06:59.543Z,15.3
2019-01-26T13:08:02.020Z,15.3
2019-01-26T13:09:04.461Z,15.4
2019-01-26T13:10:06.616Z,15.3
2019-01-26T13:11:09.047Z,15.4
2019-01-26T13:12:11.203Z,15.3
2019-01-26T13:13:13.660Z,15.3
2019-01-26T13:14:15.803Z,15.5
2019-01-26T13:15:17.985Z,15.3
2019-01-26T13:16:20.423Z,15.3
2019-01-26T13:17:22.886Z,15.3
2019-01-26T13:18:25.307Z,15.4
2019-01-26T13:19:27.725Z,15.3
2019-01-26T13:20:30.165Z,15.3
2019-01-26T13:21:32.310Z,15.5
2019-01-26T13:22:34.751Z,15.3
2019-01-26T13:23:37.188Z,15.3
2019-01-26T13:24:39.626Z,15.4
2019-01-26T13:25:41.808Z,15.5
2019-01-26T13:26:44.233Z,15.3
2019-01-26T13:27:46.148Z,15.3
2019-01-26T13:28:48.566Z,15.4
2019-01-26T13:29:51.020Z,15.4
2019-01-26T13:30:53.185Z,15.4
2019-01-26T13:31:55.611Z,15.3
2019-01-26T13:32:58.049Z,15.2
2019-01-26T13:34:00.302Z,15.3
2019-01-26T13:35:05.766Z,15.3
2019-01-26T13:36:08.136Z,15.3
2019-01-26T13:37:10.324Z,15.3
2019-01-26T13:38:12.580Z,15.3
2019-01-26T13:39:15.077Z,15.3
2019-01-26T13:40:17.583Z,15.3
2019-01-26T13:41:19.866Z,15.3
2019-01-26T13:42:22.350Z,15.4
2019-01-26T13:43:25.053Z,15.3
2019-01-26T13:44:28.666Z,15.3
2019-01-26T13:45:31.405Z,15.5
2019-01-26T13:46:33.307Z,15.3
2019-01-26T13:48:41.225Z,15.3
2019-01-26T13:49:44.846Z,15.3
2019-01-26T13:50:48.832Z,15.4
2019-01-26T13:51:52.297Z,15.4
2019-01-26T13:52:55.893Z,15.2
2019-01-26T13:53:58.821Z,15.3
2019-01-26T13:55:01.378Z,15.3
2019-01-26T13:56:04.038Z,15.3